Time;durP1;ratioP1;P1;durP2;ratioP2;P2;SDS_P1;SDS_P2;PMS_P1;PMS_P2;Temp;Humidity;BMP_temperature;BMP_pressure;BME280_temperature;BME280_humidity;BME280_pressure;Samples;Min_cycle;Max_cycle;Signal;HPM_P1;HPM_P2
2023/07/11 00:00:05;;;;;;;1999.90;999.90;;;17.60;99.90;;;;;;4990621;28;20488;-73
2023/07/11 00:02:31;;;;;;;1999.90;999.90;;;17.70;99.90;;;;;;4991381;28;20426;-74
2023/07/11 00:04:58;;;;;;;1999.90;999.90;;;17.60;99.90;;;;;;4989450;28;20422;-73
2023/07/11 00:07:25;;;;;;;1999.90;999.90;;;17.70;99.90;;;;;;4991138;28;20909;-73
2023/07/11 00:09:52;;;;;;;1999.90;999.90;;;17.70;99.90;;;;;;4990113;28;20442;-73
2023/07/11 00:12:21;;;;;;;1999.90;999.90;;;17.80;99.90;;;;;;4991388;28;20446;-73
2023/07/11 00:14:47;;;;;;;1999.90;999.90;;;17.80;99.90;;;;;;4992854;28;20422;-73
2023/07/11 00:17:14;;;;;;;1999.90;999.90;;;17.90;99.90;;;;;;4988896;28;20496;-71
2023/07/11 00:19:48;;;;;;;1999.90;999.90;;;17.60;99.90;;;;;;4991224;28;20438;-73
2023/07/11 00:22:15;;;;;;;1999.90;999.90;;;17.40;99.90;;;;;;4993197;28;20481;-74
2023/07/11 00:24:42;;;;;;;1999.90;999.90;;;17.40;99.90;;;;;;4991818;28;20430;-74
2023/07/11 00:27:10;;;;;;;1999.90;999.90;;;17.30;99.90;;;;;;4991641;28;20925;-73
2023/07/11 00:29:38;;;;;;;1999.90;999.90;;;17.30;99.90;;;;;;4992063;28;20437;-73
2023/07/11 00:32:06;;;;;;;1999.90;999.90;;;17.30;99.90;;;;;;4993149;28;20418;-73
2023/07/11 00:34:33;;;;;;;1999.90;999.90;;;17.20;99.90;;;;;;4992239;28;20426;-73
2023/07/11 00:37:00;;;;;;;1999.90;999.90;;;17.30;99.90;;;;;;4989833;28;20538;-72
2023/07/11 00:39:28;;;;;;;1999.90;999.90;;;17.30;99.90;;;;;;4991492;28;20987;-73
2023/07/11 00:41:55;;;;;;;1999.90;999.90;;;17.20;99.90;;;;;;4992700;28;20418;-72
2023/07/11 00:44:23;;;;;;;1999.90;999.90;;;17.00;99.90;;;;;;4991822;28;20430;-75
2023/07/11 00:46:51;;;;;;;1999.90;999.90;;;16.90;99.90;;;;;;4990841;28;20476;-73
2023/07/11 00:49:20;;;;;;;1999.90;999.90;;;16.90;99.90;;;;;;4990893;28;20809;-70
2023/07/11 00:51:51;;;;;;;1999.90;999.90;;;16.90;99.90;;;;;;4987345;28;20937;-73
2023/07/11 00:54:21;;;;;;;1999.90;999.90;;;16.90;99.90;;;;;;4991909;28;20426;-73
2023/07/11 00:56:48;;;;;;;1999.90;999.90;;;17.00;99.90;;;;;;4992705;28;20418;-73
2023/07/11 00:59:20;;;;;;;1999.90;999.90;;;17.00;99.90;;;;;;4990740;28;20434;-73
2023/07/11 01:01:56;;;;;;;1999.90;999.90;;;17.10;99.90;;;;;;4991237;28;20423;-73
2023/07/11 01:04:23;;;;;;;1999.90;999.90;;;17.20;99.90;;;;;;4988880;28;20442;-73
2023/07/11 01:06:49;;;;;;;1999.90;999.90;;;17.10;99.90;;;;;;4992172;28;20426;-73
2023/07/11 01:09:16;;;;;;;1999.90;999.90;;;17.20;99.90;;;;;;4990865;28;20438;-74
2023/07/11 01:11:52;;;;;;;1999.90;999.90;;;17.20;99.90;;;;;;4991142;28;20567;-71
2023/07/11 01:14:19;;;;;;;1999.90;999.90;;;17.30;99.90;;;;;;4991432;28;20501;-70
2023/07/11 01:16:46;;;;;;;1999.90;999.90;;;17.20;99.90;;;;;;4992134;28;20422;-73
2023/07/11 01:19:14;;;;;;;1999.90;999.90;;;17.20;99.90;;;;;;4991153;28;20434;-73
2023/07/11 01:21:42;;;;;;;1999.90;999.90;;;17.40;99.90;;;;;;4988719;28;20447;-76
2023/07/11 01:24:09;;;;;;;1999.90;999.90;;;17.50;99.90;;;;;;4984649;28;20423;-73
2023/07/11 01:26:35;;;;;;;1999.90;999.90;;;17.50;99.90;;;;;;4991725;28;20418;-73
2023/07/11 01:29:02;;;;;;;1999.90;999.90;;;17.70;99.90;;;;;;4990299;28;20920;-71
2023/07/11 01:31:29;;;;;;;1999.90;999.90;;;17.40;99.90;;;;;;4991516;28;20423;-73
2023/07/11 01:33:55;;;;;;;1999.90;999.90;;;17.40;99.90;;;;;;4988307;28;20442;-74
2023/07/11 01:36:22;;;;;;;1999.90;999.90;;;17.30;99.90;;;;;;4991790;28;20422;-69
2023/07/11 01:38:50;;;;;;;1999.90;999.90;;;17.20;99.90;;;;;;4990034;28;20538;-73
2023/07/11 01:41:17;;;;;;;1999.90;999.90;;;16.90;99.90;;;;;;4988924;28;20438;-73
2023/07/11 01:43:44;;;;;;;1999.90;999.90;;;17.00;99.90;;;;;;4989964;28;20442;-70
2023/07/11 01:46:10;;;;;;;1999.90;999.90;;;17.10;99.90;;;;;;4991475;28;20473;-73
2023/07/11 01:48:37;;;;;;;1999.90;999.90;;;17.00;99.90;;;;;;4990390;28;20482;-72
2023/07/11 01:51:04;;;;;;;1999.90;999.90;;;17.00;99.90;;;;;;4989968;28;20437;-69
2023/07/11 01:53:30;;;;;;;1999.90;999.90;;;17.20;99.90;;;;;;4990725;28;20433;-73
2023/07/11 01:56:01;;;;;;;1999.90;999.90;;;16.90;99.90;;;;;;4990997;28;20516;-73
2023/07/11 01:58:28;;;;;;;1999.90;999.90;;;16.90;99.90;;;;;;4989225;28;20445;-74
2023/07/11 02:00:55;;;;;;;1999.90;999.90;;;16.90;99.90;;;;;;4985125;28;21222;-75
2023/07/11 02:03:22;;;;;;;1999.90;999.90;;;16.80;99.90;;;;;;4988374;28;20936;-73
2023/07/11 02:05:49;;;;;;;1999.90;999.90;;;16.80;99.90;;;;;;4989434;28;20418;-73
2023/07/11 02:08:16;;;;;;;1999.90;999.90;;;16.60;99.90;;;;;;4989877;28;20414;-73
2023/07/11 02:10:42;;;;;;;1999.90;999.90;;;16.60;99.90;;;;;;4987937;28;20455;-73
2023/07/11 02:13:11;;;;;;;1999.90;999.90;;;16.60;99.90;;;;;;4989052;28;20963;-73
2023/07/11 02:15:38;;;;;;;1999.90;999.90;;;16.70;99.90;;;;;;4989173;28;20434;-73
2023/07/11 02:18:05;;;;;;;1999.90;999.90;;;16.70;99.90;;;;;;4988859;28;20434;-73
2023/07/11 02:20:31;;;;;;;1999.90;999.90;;;16.70;99.90;;;;;;4987603;28;20434;-73
2023/07/11 02:22:59;;;;;;;1999.90;999.90;;;16.70;99.90;;;;;;4988509;28;20442;-73
2023/07/11 02:25:26;;;;;;;1999.90;999.90;;;16.60;99.90;;;;;;4990264;28;20784;-73
2023/07/11 02:27:53;;;;;;;1999.90;999.90;;;16.30;99.90;;;;;;4989360;28;20489;-74
2023/07/11 02:30:21;;;;;;;1999.90;999.90;;;16.20;99.90;;;;;;4989647;28;20438;-73
2023/07/11 02:32:47;;;;;;;1999.90;999.90;;;16.30;99.90;;;;;;4990856;28;20476;-72
2023/07/11 02:35:14;;;;;;;1999.90;999.90;;;16.30;99.90;;;;;;4990268;28;20427;-73
2023/07/11 02:37:41;;;;;;;1999.90;999.90;;;16.30;99.90;;;;;;4988948;28;20438;-73
2023/07/11 02:40:09;;;;;;;1999.90;999.90;;;16.20;99.90;;;;;;4989691;28;20504;-74
2023/07/11 02:42:36;;;;;;;1999.90;999.90;;;16.30;99.90;;;;;;4989582;28;20573;-73
2023/07/11 02:45:03;;;;;;;1999.90;999.90;;;16.50;99.90;;;;;;4990205;28;20422;-73
2023/07/11 02:47:31;;;;;;;1999.90;999.90;;;16.60;99.90;;;;;;4987337;28;20494;-73
2023/07/11 02:49:57;;;;;;;1999.90;999.90;;;16.70;99.90;;;;;;4988857;28;20434;-72
2023/07/11 02:52:24;;;;;;;1999.90;999.90;;;16.70;99.90;;;;;;4990700;28;20477;-73
2023/07/11 02:54:51;;;;;;;1999.90;999.90;;;16.70;99.90;;;;;;4990118;28;20410;-74
2023/07/11 02:57:17;;;;;;;1999.90;999.90;;;16.60;99.90;;;;;;4987145;28;20437;-74
2023/07/11 02:59:44;;;;;;;1999.90;999.90;;;16.60;99.90;;;;;;4988877;28;20492;-73
2023/07/11 03:02:11;;;;;;;1999.90;999.90;;;16.60;99.90;;;;;;4989907;28;20422;-74
2023/07/11 03:04:39;;;;;;;1999.90;999.90;;;16.60;99.90;;;;;;4989661;28;20832;-74
2023/07/11 03:07:06;;;;;;;1999.90;999.90;;;16.60;99.90;;;;;;4988765;28;20967;-74
2023/07/11 03:09:34;;;;;;;1999.90;999.90;;;16.50;99.90;;;;;;4988921;28;20786;-74
2023/07/11 03:12:01;;;;;;;1999.90;999.90;;;16.60;99.90;;;;;;4982576;28;20509;-74
2023/07/11 03:14:27;;;;;;;1999.90;999.90;;;16.60;99.90;;;;;;4989538;28;20418;-75
2023/07/11 03:16:54;;;;;;;1999.90;999.90;;;16.60;99.90;;;;;;4989064;28;20442;-74
2023/07/11 03:19:21;;;;;;;1999.90;999.90;;;16.40;99.90;;;;;;4987613;28;20434;-73
2023/07/11 03:21:50;;;;;;;1999.90;999.90;;;16.50;99.90;;;;;;4989645;28;20446;-74
2023/07/11 03:24:17;;;;;;;1999.90;999.90;;;16.40;99.90;;;;;;4989820;28;20511;-73
2023/07/11 03:26:45;;;;;;;1999.90;999.90;;;16.40;99.90;;;;;;4988723;28;20442;-71
2023/07/11 03:29:13;;;;;;;1999.90;999.90;;;16.40;99.90;;;;;;4992008;28;21020;-73
2023/07/11 03:31:40;;;;;;;1999.90;999.90;;;16.20;99.90;;;;;;4992457;28;20438;-74
2023/07/11 03:34:07;;;;;;;1999.90;999.90;;;16.20;99.90;;;;;;4991599;28;20469;-73
2023/07/11 03:36:33;;;;;;;1999.90;999.90;;;16.00;99.90;;;;;;4991248;28;20442;-74
2023/07/11 03:39:03;;;;;;;1999.90;999.90;;;16.00;99.90;;;;;;4991691;28;20481;-72
2023/07/11 03:41:30;;;;;;;1999.90;999.90;;;15.90;99.90;;;;;;4993593;28;20437;-74
2023/07/11 03:43:57;;;;;;;1999.90;999.90;;;15.80;99.90;;;;;;4992772;28;20554;-72
2023/07/11 03:46:24;;;;;;;1999.90;999.90;;;15.70;99.90;;;;;;4993081;28;20422;-73
2023/07/11 03:48:50;;;;;;;1999.90;999.90;;;15.80;99.90;;;;;;4990249;28;20774;-73
2023/07/11 03:51:17;;;;;;;1999.90;999.90;;;15.80;99.90;;;;;;4992818;28;20418;-74
2023/07/11 03:53:43;;;;;;;1999.90;999.90;;;15.90;99.90;;;;;;4992791;28;20472;-73
2023/07/11 03:56:11;;;;;;;1999.90;999.90;;;15.90;99.90;;;;;;4993272;28;20422;-74
2023/07/11 03:58:38;;;;;;;1999.90;999.90;;;16.10;99.90;;;;;;4989376;28;20852;-73
2023/07/11 04:01:05;;;;;;;1999.90;999.90;;;16.20;99.90;;;;;;4993701;28;20422;-72
2023/07/11 04:03:31;;;;;;;1999.90;999.90;;;16.30;99.90;;;;;;4993006;28;20418;-77
2023/07/11 04:05:58;;;;;;;1999.90;999.90;;;16.40;99.90;;;;;;4992577;28;20477;-73
2023/07/11 04:08:25;;;;;;;1999.90;999.90;;;16.50;99.90;;;;;;4990664;28;20448;-73
2023/07/11 04:10:51;;;;;;;1999.90;999.90;;;16.60;99.90;;;;;;4993034;28;20454;-76
2023/07/11 04:13:19;;;;;;;1999.90;999.90;;;16.70;99.90;;;;;;4992429;28;20469;-72
2023/07/11 04:15:46;;;;;;;1999.90;999.90;;;16.80;99.90;;;;;;4993421;28;20468;-72
2023/07/11 04:18:12;;;;;;;1999.90;999.90;;;16.80;99.90;;;;;;4990886;28;20441;-72
2023/07/11 04:20:39;;;;;;;1999.90;999.90;;;16.80;99.90;;;;;;4988771;28;20485;-73
2023/07/11 04:23:06;;;;;;;1999.90;999.90;;;16.80;99.90;;;;;;4992602;28;20459;-72
2023/07/11 04:25:32;;;;;;;1999.90;999.90;;;16.90;99.90;;;;;;4993093;28;20561;-73
2023/07/11 04:27:59;;;;;;;1999.90;999.90;;;17.10;99.90;;;;;;4992205;28;20488;-73
2023/07/11 04:30:27;;;;;;;1999.90;999.90;;;17.00;99.90;;;;;;4990604;28;20434;-74
2023/07/11 04:32:54;;;;;;;1999.90;999.90;;;17.10;99.90;;;;;;4992051;28;20508;-74
2023/07/11 04:35:20;;;;;;;1999.90;999.90;;;17.30;99.90;;;;;;4991231;28;20434;-72
2023/07/11 04:37:47;;;;;;;1999.90;999.90;;;17.50;99.90;;;;;;4990691;28;20489;-72
2023/07/11 04:40:14;;;;;;;1999.90;999.90;;;17.90;99.90;;;;;;4991104;28;20438;-72
2023/07/11 04:42:40;;;;;;;1999.90;999.90;;;18.40;99.90;;;;;;4992490;28;20418;-75
2023/07/11 04:45:09;;;;;;;1999.90;999.90;;;19.00;99.90;;;;;;4991807;28;20426;-73
2023/07/11 04:47:37;;;;;;;1999.90;999.90;;;19.50;99.90;;;;;;4991749;28;20442;-73
2023/07/11 04:50:04;;;;;;;1999.90;999.90;;;19.90;99.90;;;;;;4989728;28;20438;-72
2023/07/11 04:52:32;;;;;;;1999.90;999.90;;;20.30;99.90;;;;;;4992656;28;20419;-74
2023/07/11 04:54:58;;;;;;;1999.90;999.90;;;20.70;99.90;;;;;;4991426;28;20426;-73
2023/07/11 04:57:25;;;;;;;1999.90;999.90;;;21.10;99.90;;;;;;4991214;28;20438;-73
2023/07/11 04:59:52;;;;;;;1999.90;999.90;;;21.30;99.90;;;;;;4990797;28;20905;-73
2023/07/11 05:02:19;;;;;;;1999.90;999.90;;;21.40;99.90;;;;;;4992005;28;20481;-71
2023/07/11 05:04:47;;;;;;;1999.90;999.90;;;21.70;99.90;;;;;;4991319;28;20422;-73
2023/07/11 05:07:14;;;;;;;1999.90;999.90;;;21.80;99.90;;;;;;4986797;28;20434;-73
2023/07/11 05:09:41;;;;;;;1999.90;999.90;;;21.90;99.90;;;;;;4991064;28;20434;-73
2023/07/11 05:12:10;;;;;;;1999.90;999.90;;;22.30;99.90;;;;;;4991685;28;20466;-73
2023/07/11 05:14:37;;;;;;;1999.90;999.90;;;22.40;99.90;;;;;;4990886;28;20854;-73
2023/07/11 05:17:04;;;;;;;1999.90;999.90;;;22.40;99.90;;;;;;4991205;28;20446;-73
2023/07/11 05:19:30;;;;;;;1999.90;999.90;;;22.70;99.90;;;;;;4985224;28;20530;-72
2023/07/11 05:21:58;;;;;;;1999.90;999.90;;;22.80;99.90;;;;;;4989740;28;20438;-73
2023/07/11 05:24:25;;;;;;;1999.90;999.90;;;23.20;99.90;;;;;;4990111;28;20437;-73
2023/07/11 05:26:52;;;;;;;1999.90;999.90;;;23.40;99.90;;;;;;4985614;28;20438;-73
2023/07/11 05:29:18;;;;;;;1999.90;999.90;;;23.50;99.90;;;;;;4989198;28;20805;-74
2023/07/11 05:31:45;;;;;;;1999.90;999.90;;;23.00;99.90;;;;;;4990783;28;20991;-73
2023/07/11 05:34:12;;;;;;;1999.90;999.90;;;22.70;99.90;;;;;;4990502;28;20905;-73
2023/07/11 05:36:39;;;;;;;1999.90;999.90;;;22.80;99.90;;;;;;4991284;28;20485;-74
2023/07/11 05:39:10;;;;;;;1999.90;999.90;;;22.90;99.90;;;;;;4988058;28;20570;-75
2023/07/11 05:41:41;;;;;;;1999.90;999.90;;;22.90;99.90;;;;;;4991248;28;20427;-76
2023/07/11 05:44:08;;;;;;;1999.90;999.90;;;23.00;99.90;;;;;;4990767;28;20429;-73
2023/07/11 05:46:34;;;;;;;1999.90;999.90;;;23.20;99.90;;;;;;4990922;28;20469;-73
2023/07/11 05:49:01;;;;;;;1999.90;999.90;;;23.50;99.90;;;;;;4988933;28;20426;-72
2023/07/11 05:51:29;;;;;;;1999.90;999.90;;;23.60;99.90;;;;;;4989532;28;20438;-74
2023/07/11 05:53:55;;;;;;;1999.90;999.90;;;23.60;99.90;;;;;;4990484;28;20832;-74
2023/07/11 05:56:24;;;;;;;1999.90;999.90;;;23.60;99.90;;;;;;4991400;28;20472;-73
2023/07/11 05:58:52;;;;;;;1999.90;999.90;;;23.70;99.90;;;;;;4989860;28;20480;-74
2023/07/11 06:01:21;;;;;;;1999.90;999.90;;;23.70;99.90;;;;;;4985608;28;20840;-76
2023/07/11 06:03:50;;;;;;;1999.90;999.90;;;23.80;99.90;;;;;;4990392;28;20422;-74
2023/07/11 06:06:18;;;;;;;1999.90;999.90;;;23.90;99.90;;;;;;4990932;28;20418;-73
2023/07/11 06:08:45;;;;;;;1999.90;999.90;;;24.00;99.90;;;;;;4990598;28;20418;-71
2023/07/11 06:11:12;;;;;;;1999.90;999.90;;;24.20;99.90;;;;;;4989975;28;20553;-74
2023/07/11 06:13:41;;;;;;;1999.90;999.90;;;24.10;99.90;;;;;;4990489;28;20422;-74
2023/07/11 06:16:11;;;;;;;1999.90;999.90;;;24.20;99.90;;;;;;4990875;28;20422;-72
2023/07/11 06:18:39;;;;;;;1999.90;999.90;;;24.10;99.90;;;;;;4991128;28;20473;-74
2023/07/11 06:21:07;;;;;;;1999.90;999.90;;;24.10;99.90;;;;;;4988047;28;20430;-73
2023/07/11 06:23:34;;;;;;;1999.90;999.90;;;24.00;99.90;;;;;;4990155;28;20431;-76
2023/07/11 06:26:01;;;;;;;1999.90;999.90;;;24.00;99.90;;;;;;4991036;28;20423;-74
2023/07/11 06:28:28;;;;;;;1999.90;999.90;;;24.10;99.90;;;;;;4990998;28;20895;-75
2023/07/11 06:30:58;;;;;;;1999.90;999.90;;;24.30;99.90;;;;;;4989027;28;20447;-75
2023/07/11 06:33:26;;;;;;;1999.90;999.90;;;24.60;99.90;;;;;;4990004;28;20881;-74
2023/07/11 06:35:53;;;;;;;1999.90;999.90;;;24.60;99.90;;;;;;4990926;28;20984;-73
2023/07/11 06:38:21;;;;;;;1999.90;999.90;;;24.60;99.90;;;;;;4991205;28;20418;-74
2023/07/11 06:40:49;;;;;;;1999.90;999.90;;;24.90;99.90;;;;;;4986727;28;21000;-74
2023/07/11 06:43:16;;;;;;;1999.90;999.90;;;24.70;99.90;;;;;;4986261;28;20418;-73
2023/07/11 06:45:45;;;;;;;1999.90;999.90;;;24.70;99.90;;;;;;4989999;28;20844;-71
2023/07/11 06:48:14;;;;;;;1999.90;999.90;;;24.60;99.90;;;;;;4990689;28;20509;-70
2023/07/11 06:50:40;;;;;;;1999.90;999.90;;;24.90;99.90;;;;;;4990345;28;20441;-73
2023/07/11 06:53:07;;;;;;;1999.90;999.90;;;24.90;99.90;;;;;;4989595;28;20466;-71
2023/07/11 06:55:34;;;;;;;1999.90;999.90;;;25.10;99.90;;;;;;4986798;28;20500;-72
2023/07/11 06:58:00;;;;;;;1999.90;999.90;;;25.00;99.90;;;;;;4984847;28;20548;-73
2023/07/11 07:00:27;;;;;;;1999.90;999.90;;;25.10;99.90;;;;;;4987345;28;20447;-73
2023/07/11 07:02:54;;;;;;;1999.90;999.90;;;25.20;99.90;;;;;;4987993;28;20438;-73
2023/07/11 07:05:22;;;;;;;1999.90;999.90;;;25.60;99.90;;;;;;4992077;28;20472;-74
2023/07/11 07:07:49;;;;;;;1999.90;999.90;;;25.50;99.90;;;;;;4993956;28;20988;-73
2023/07/11 07:10:15;;;;;;;1999.90;999.90;;;25.40;99.90;;;;;;4987986;28;20852;-70
2023/07/11 07:12:42;;;;;;;1999.90;999.90;;;25.50;99.90;;;;;;4994424;28;20422;-70
2023/07/11 07:15:09;;;;;;;1999.90;999.90;;;25.30;99.90;;;;;;4991237;28;20967;-72
2023/07/11 07:17:36;;;;;;;1999.90;999.90;;;25.60;99.90;;;;;;4993738;28;20969;-72
2023/07/11 07:20:04;;;;;;;1999.90;999.90;;;25.50;99.90;;;;;;4993405;28;20999;-72
2023/07/11 07:22:32;;;;;;;1999.90;999.90;;;25.50;99.90;;;;;;4990429;28;20935;-73
2023/07/11 07:24:59;;;;;;;1999.90;999.90;;;25.70;99.90;;;;;;4991658;28;20437;-73
2023/07/11 07:27:25;;;;;;;1999.90;999.90;;;25.80;99.90;;;;;;4992403;28;20504;-73
2023/07/11 07:29:52;;;;;;;1999.90;999.90;;;26.10;99.90;;;;;;4991645;28;20446;-73
2023/07/11 07:32:19;;;;;;;1999.90;999.90;;;26.40;99.90;;;;;;4991384;28;20445;-69
2023/07/11 07:34:45;;;;;;;1999.90;999.90;;;26.60;99.90;;;;;;4991380;28;20423;-70
2023/07/11 07:37:13;;;;;;;1999.90;999.90;;;26.70;99.90;;;;;;4988456;28;20445;-72
2023/07/11 07:39:41;;;;;;;1999.90;999.90;;;26.90;99.90;;;;;;4987624;28;20919;-71
2023/07/11 07:42:08;;;;;;;1999.90;999.90;;;27.10;99.10;;;;;;4989449;28;20533;-72
2023/07/11 07:44:35;;;;;;;1999.90;999.90;;;27.10;98.90;;;;;;4992765;28;20430;-72
2023/07/11 07:47:01;;;;;;;1999.90;999.90;;;27.20;98.80;;;;;;4992998;28;20496;-72
2023/07/11 07:49:28;;;;;;;1999.90;999.90;;;27.20;98.50;;;;;;4992912;28;20978;-73
2023/07/11 07:51:55;;;;;;;1999.90;999.90;;;27.10;99.20;;;;;;4991644;28;20442;-73
2023/07/11 07:54:21;;;;;;;1999.90;999.90;;;27.20;98.60;;;;;;4990705;28;20484;-71
2023/07/11 07:56:49;;;;;;;1999.90;999.90;;;27.30;98.60;;;;;;4991182;28;20450;-76
2023/07/11 07:59:16;;;;;;;1999.90;999.90;;;27.30;98.70;;;;;;4992081;28;20575;-72
2023/07/11 08:01:42;;;;;;;1999.90;999.90;;;27.30;98.30;;;;;;4989817;28;20442;-70
2023/07/11 08:04:09;;;;;;;1999.90;999.90;;;27.30;98.00;;;;;;4992787;28;20439;-72
2023/07/11 08:06:36;;;;;;;1999.90;999.90;;;27.40;98.40;;;;;;4992224;28;20414;-74
2023/07/11 08:09:03;;;;;;;1999.90;999.90;;;27.60;98.40;;;;;;4990785;28;21095;-70
2023/07/11 08:11:30;;;;;;;1999.90;999.90;;;27.60;97.80;;;;;;4991097;28;20504;-72
2023/07/11 08:13:58;;;;;;;1999.90;999.90;;;27.80;97.30;;;;;;4991988;28;20422;-72
2023/07/11 08:16:25;;;;;;;1999.90;999.90;;;27.80;98.00;;;;;;4992960;28;20517;-69
2023/07/11 08:18:52;;;;;;;1999.90;999.90;;;27.80;97.60;;;;;;4989122;28;20485;-73
2023/07/11 08:21:19;;;;;;;1999.90;999.90;;;28.00;97.80;;;;;;4989958;28;20488;-72
2023/07/11 08:23:45;;;;;;;1999.90;999.90;;;28.10;97.50;;;;;;4991948;28;20905;-71
2023/07/11 08:26:12;;;;;;;1999.90;999.90;;;28.10;97.10;;;;;;4992599;28;20418;-71
2023/07/11 08:28:41;;;;;;;1999.90;999.90;;;28.20;96.30;;;;;;4991589;28;20532;-72
2023/07/11 08:31:09;;;;;;;1999.90;999.90;;;28.20;96.70;;;;;;4990974;28;20521;-70
2023/07/11 08:33:36;;;;;;;1999.90;999.90;;;28.20;96.60;;;;;;4989614;28;20438;-77
2023/07/11 08:36:03;;;;;;;1999.90;999.90;;;28.20;96.10;;;;;;4992160;28;20534;-73
2023/07/11 08:38:29;;;;;;;1999.90;999.90;;;28.20;96.20;;;;;;4987991;28;20449;-72
2023/07/11 08:40:56;;;;;;;1999.90;999.90;;;28.30;96.40;;;;;;4991287;28;20840;-72
2023/07/11 08:43:28;;;;;;;1999.90;999.90;;;28.30;95.60;;;;;;4990207;28;20438;-73
2023/07/11 08:46:02;;;;;;;1999.90;999.90;;;28.40;95.90;;;;;;4992418;28;20964;-72
2023/07/11 08:48:33;;;;;;;1999.90;999.90;;;28.50;96.40;;;;;;4991379;28;20442;-71
2023/07/11 08:51:07;;;;;;;1999.90;999.90;;;28.40;95.00;;;;;;4989200;28;20956;-72
2023/07/11 08:53:38;;;;;;;1999.90;999.90;;;28.50;95.00;;;;;;4991426;28;20449;-76
2023/07/11 08:56:14;;;;;;;1999.90;999.90;;;28.50;94.90;;;;;;4990557;28;20438;-72
2023/07/11 08:58:42;;;;;;;1999.90;999.90;;;28.70;95.10;;;;;;4991244;28;20422;-72
2023/07/11 09:01:24;;;;;;;1999.90;999.90;;;28.80;94.90;;;;;;4990542;28;20837;-73
2023/07/11 09:03:52;;;;;;;1999.90;999.90;;;29.00;95.50;;;;;;4991508;28;20905;-72
2023/07/11 09:06:21;;;;;;;1999.90;999.90;;;29.00;95.30;;;;;;4990250;28;20441;-72
2023/07/11 09:08:54;;;;;;;1999.90;999.90;;;29.00;95.00;;;;;;4991219;28;20418;-73
2023/07/11 09:11:24;;;;;;;1999.90;999.90;;;28.90;94.40;;;;;;4988126;28;20508;-74
2023/07/11 09:13:59;;;;;;;1999.90;999.90;;;29.10;94.70;;;;;;4990772;28;21069;-69
2023/07/11 09:16:35;;;;;;;1999.90;999.90;;;29.10;94.60;;;;;;4990467;28;20442;-72
2023/07/11 09:19:15;;;;;;;1999.90;999.90;;;29.20;94.40;;;;;;4982641;28;20438;-73
2023/07/11 09:21:52;;;;;;;1999.90;999.90;;;29.20;94.40;;;;;;4991313;28;20434;-72
2023/07/11 09:24:30;;;;;;;1999.90;999.90;;;29.20;94.00;;;;;;4989555;28;20438;-73
2023/07/11 09:27:05;;;;;;;1999.90;999.90;;;29.40;92.60;;;;;;4991167;28;20422;-73
2023/07/11 09:29:33;;;;;;;1999.90;999.90;;;29.40;93.30;;;;;;4988957;28;20588;-74
2023/07/11 09:32:02;;;;;;;1999.90;999.90;;;29.10;92.90;;;;;;4991403;28;20816;-73
2023/07/11 09:34:34;;;;;;;1999.90;999.90;;;29.20;94.20;;;;;;4991157;28;20828;-73
2023/07/11 09:37:12;;;;;;;1999.90;999.90;;;29.20;93.70;;;;;;4989834;28;20442;-73
2023/07/11 09:39:43;;;;;;;1999.90;999.90;;;29.40;93.40;;;;;;4988044;28;20497;-73
2023/07/11 09:42:19;;;;;;;1999.90;999.90;;;29.50;93.10;;;;;;4985385;28;21154;-72
2023/07/11 09:44:59;;;;;;;1999.90;999.90;;;29.40;93.60;;;;;;4991028;28;20514;-73
2023/07/11 09:47:30;;;;;;;1999.90;999.90;;;29.50;94.20;;;;;;4990494;28;20921;-72
2023/07/11 09:49:59;;;;;;;1999.90;999.90;;;29.50;93.50;;;;;;4988782;28;20501;-73
2023/07/11 09:52:28;;;;;;;1999.90;999.90;;;29.80;93.90;;;;;;4990109;28;20513;-72
2023/07/11 09:54:56;;;;;;;1999.90;999.90;;;29.80;93.30;;;;;;4990878;28;20472;-72
2023/07/11 09:57:22;;;;;;;1999.90;999.90;;;29.70;93.30;;;;;;4988946;28;20500;-73
2023/07/11 09:59:55;;;;;;;1999.90;999.90;;;29.80;93.40;;;;;;4989454;28;20794;-73
2023/07/11 10:02:23;;;;;;;1999.90;999.90;;;29.80;93.50;;;;;;4991056;28;20441;-72
2023/07/11 10:04:51;;;;;;;1999.90;999.90;;;29.90;92.70;;;;;;4991159;28;20464;-73
2023/07/11 10:07:21;;;;;;;1999.90;999.90;;;29.90;93.10;;;;;;4991007;28;20480;-73
2023/07/11 10:09:50;;;;;;;1999.90;999.90;;;30.20;93.60;;;;;;4988225;28;20853;-74
2023/07/11 10:12:20;;;;;;;1999.90;999.90;;;30.40;93.00;;;;;;4990804;28;20418;-73
2023/07/11 10:14:52;;;;;;;1999.90;999.90;;;30.60;92.70;;;;;;4990414;28;20943;-73
2023/07/11 10:17:22;;;;;;;1999.90;999.90;;;30.60;92.20;;;;;;4991013;28;20782;-73
2023/07/11 10:19:49;;;;;;;1999.90;999.90;;;30.50;91.60;;;;;;4988908;28;20441;-74
2023/07/11 10:22:18;;;;;;;1999.90;999.90;;;30.50;91.50;;;;;;4988663;28;20438;-73
2023/07/11 10:24:46;;;;;;;1999.90;999.90;;;30.60;91.70;;;;;;4990334;28;20480;-72
2023/07/11 10:27:15;;;;;;;1999.90;999.90;;;30.60;92.10;;;;;;4990780;28;20782;-73
2023/07/11 10:29:47;;;;;;;1999.90;999.90;;;30.70;91.60;;;;;;4988451;28;20484;-70
2023/07/11 10:32:18;;;;;;;1999.90;999.90;;;30.10;90.90;;;;;;4990612;28;20967;-73
2023/07/11 10:34:51;;;;;;;1999.90;999.90;;;30.40;91.10;;;;;;4990225;28;20418;-73
2023/07/11 10:37:26;;;;;;;1999.90;999.90;;;30.60;91.50;;;;;;4992614;28;20836;-74
2023/07/11 10:39:58;;;;;;;1999.90;999.90;;;30.70;91.60;;;;;;4992281;28;20446;-73
2023/07/11 10:42:31;;;;;;;1999.90;999.90;;;31.00;92.10;;;;;;4991338;28;20434;-72
2023/07/11 10:45:07;;;;;;;1999.90;999.90;;;30.90;91.00;;;;;;4996188;28;20453;-73
2023/07/11 10:47:38;;;;;;;1999.90;999.90;;;30.70;91.50;;;;;;4994549;28;20509;-73
2023/07/11 10:50:22;;;;;;;1999.90;999.90;;;30.50;90.80;;;;;;4992347;28;20410;-73
2023/07/11 10:52:54;;;;;;;1999.90;999.90;;;30.50;91.70;;;;;;4992131;28;20430;-73
2023/07/11 10:55:28;;;;;;;1999.90;999.90;;;30.50;91.20;;;;;;4992748;28;20905;-71
2023/07/11 10:57:57;;;;;;;1999.90;999.90;;;30.60;91.00;;;;;;4991982;28;20445;-70
2023/07/11 11:00:29;;;;;;;1999.90;999.90;;;30.70;91.60;;;;;;4994029;28;20426;-73
2023/07/11 11:03:04;;;;;;;1999.90;999.90;;;30.90;91.10;;;;;;4992091;28;20430;-71
2023/07/11 11:05:43;;;;;;;1999.90;999.90;;;30.90;91.80;;;;;;4992932;28;20446;-72
2023/07/11 11:08:15;;;;;;;1999.90;999.90;;;30.90;90.00;;;;;;4991898;28;20436;-74
2023/07/11 11:10:49;;;;;;;1999.90;999.90;;;30.90;90.80;;;;;;4994191;28;20422;-72
2023/07/11 11:13:27;;;;;;;1999.90;999.90;;;30.70;91.20;;;;;;4990706;28;20499;-71
2023/07/11 11:16:04;;;;;;;1999.90;999.90;;;31.10;91.10;;;;;;4993876;28;20419;-72
2023/07/11 11:18:43;;;;;;;1999.90;999.90;;;31.10;91.60;;;;;;4990315;28;20497;-73
2023/07/11 11:21:21;;;;;;;1999.90;999.90;;;31.30;91.40;;;;;;4974817;28;20439;-74
2023/07/11 11:24:09;;;;;;;1999.90;999.90;;;31.60;90.60;;;;;;4989325;28;20916;-73
2023/07/11 11:26:44;;;;;;;1999.90;999.90;;;31.30;90.60;;;;;;4992188;28;20433;-73
2023/07/11 11:29:23;;;;;;;1999.90;999.90;;;31.30;90.10;;;;;;4993830;28;20844;-73
2023/07/11 11:31:57;;;;;;;1999.90;999.90;;;31.10;90.00;;;;;;4992786;28;20848;-73
2023/07/11 11:34:42;;;;;;;1999.90;999.90;;;31.20;90.70;;;;;;4993351;28;20477;-71
2023/07/11 11:37:26;;;;;;;1999.90;999.90;;;31.30;90.10;;;;;;4992581;28;20442;-72
2023/07/11 11:40:03;;;;;;;1999.90;999.90;;;31.50;90.70;;;;;;4993600;28;20430;-72
2023/07/11 11:42:35;;;;;;;1999.90;999.90;;;31.50;90.50;;;;;;4991778;28;20529;-71
2023/07/11 11:45:04;;;;;;;1999.90;999.90;;;31.50;88.10;;;;;;4985438;28;20422;-72
2023/07/11 11:47:34;;;;;;;1999.90;999.90;;;31.30;88.20;;;;;;4988348;28;21170;-72
2023/07/11 11:50:02;;;;;;;1999.90;999.90;;;31.40;87.70;;;;;;4989963;28;20508;-72
2023/07/11 11:52:32;;;;;;;1999.90;999.90;;;31.80;89.00;;;;;;4992338;28;20448;-72
2023/07/11 11:54:59;;;;;;;1999.90;999.90;;;32.40;88.40;;;;;;4989544;28;20804;-72
2023/07/11 11:57:30;;;;;;;1999.90;999.90;;;32.50;86.00;;;;;;4992677;28;20430;-70
2023/07/11 11:59:59;;;;;;;1999.90;999.90;;;32.40;84.90;;;;;;4987535;28;20488;-70
2023/07/11 12:02:33;;;;;;;1999.90;999.90;;;32.60;85.00;;;;;;4993284;28;20430;-71
2023/07/11 12:05:03;;;;;;;1999.90;999.90;;;32.80;83.70;;;;;;4991239;28;20446;-72